Terminal Aerodrome Forecast
Issued by NWS

Home | Current Version | Previous Version | Text Only | Print | Product List | Glossary On
Versions: 1 2 3 4 5 6 7 8 9 10 11 12 13 14 15 16 17 18 19 20
000
FTUS46 KPDT 251839 AAA
TAFALW
TAF AMD
KALW 251839Z 2519/2618 22010G17KT P6SM OVC050
     FM252000 22010G17KT P6SM FEW050
     FM260300 18005KT P6SM FEW050 SCT100 SCT200
     FM260700 18007KT P6SM SCT050 BKN080 BKN150
     FM261200 18007KT P6SM SCT050 BKN080 OVC150
     FM261700 23004KT P6SM SCT080 SCT150=

USA.gov is the U.S. government's official web portal to all federal, state and local government web resources and services.